Time;durP1;ratioP1;P1;durP2;ratioP2;P2;SDS_P1;SDS_P2;PMS_P1;PMS_P2;Temp;Humidity;BMP_temperature;BMP_pressure;BME280_temperature;BME280_humidity;BME280_pressure;Samples;Min_cycle;Max_cycle;Signal;HPM_P1;HPM_P2
2022/06/01 09:24:06;;;;;;;;;;;13.60;99.10;;;;;;5068813;28;20866;-55
2022/06/01 09:26:33;;;;;;;6.55;2.70;;;13.50;99.90;;;;;;5038440;28;20008;-55
2022/06/01 09:28:59;;;;;;;6.50;2.75;;;13.50;99.90;;;;;;5030614;28;20069;-55
2022/06/01 09:31:26;;;;;;;4.85;2.63;;;13.70;99.90;;;;;;5030591;28;20046;-56
2022/06/01 09:33:53;;;;;;;4.22;2.33;;;13.80;99.90;;;;;;5030726;28;20038;-55
2022/06/01 09:36:20;;;;;;;5.57;2.40;;;14.10;99.90;;;;;;5049430;28;20515;-53
2022/06/01 09:38:47;;;;;;;4.03;2.22;;;14.30;99.10;;;;;;5049459;28;20041;-51
2022/06/01 09:41:16;;;;;;;4.50;2.40;;;14.40;99.90;;;;;;5049316;28;20076;-54
2022/06/01 09:43:42;;;;;;;5.88;2.20;;;14.50;98.20;;;;;;5032700;28;20038;-55
2022/06/01 09:46:09;;;;;;;5.30;2.55;;;14.60;98.90;;;;;;5034667;28;20542;-56
2022/06/01 09:48:36;;;;;;;5.13;2.08;;;14.70;98.70;;;;;;5048637;28;20041;-51
2022/06/01 09:51:03;;;;;;;3.30;2.10;;;14.90;98.10;;;;;;5039231;28;20134;-55
2022/06/01 09:53:30;;;;;;;4.30;2.25;;;15.00;96.80;;;;;;5046443;28;20099;-57
2022/06/01 09:55:57;;;;;;;3.50;2.08;;;14.90;96.20;;;;;;5042672;28;20049;-57
2022/06/01 10:06:41;;;;;;;5.32;2.25;;;15.00;95.60;;;;;;5049037;28;20045;-55
2022/06/01 10:09:07;;;;;;;3.08;1.48;;;15.20;96.70;;;;;;5045182;28;20042;-49
2022/06/01 10:11:34;;;;;;;5.60;1.95;;;15.30;95.00;;;;;;5034213;28;20045;-53
2022/06/01 10:14:01;;;;;;;4.38;1.67;;;15.30;94.80;;;;;;5037805;28;20037;-53
2022/06/01 10:16:28;;;;;;;4.90;1.80;;;15.40;95.40;;;;;;5036304;28;20049;-52
2022/06/01 10:18:55;;;;;;;3.40;1.45;;;15.50;95.80;;;;;;5046021;28;20037;-55
2022/06/01 10:21:21;;;;;;;5.25;1.70;;;15.50;95.10;;;;;;5045313;28;20050;-54
2022/06/01 10:23:48;;;;;;;6.07;1.90;;;15.60;94.90;;;;;;5029190;28;20041;-51
2022/06/01 10:26:15;;;;;;;3.47;1.60;;;15.70;95.00;;;;;;5028188;28;20045;-54
2022/06/01 10:28:42;;;;;;;2.95;1.17;;;15.80;94.60;;;;;;5029310;28;20115;-54
2022/06/01 10:31:08;;;;;;;5.13;1.55;;;15.90;94.60;;;;;;5029724;28;20050;-56
2022/06/01 10:33:35;;;;;;;3.80;1.40;;;15.90;94.00;;;;;;5026449;28;20048;-53
2022/06/01 10:36:04;;;;;;;3.15;1.42;;;15.80;94.30;;;;;;5016041;28;20057;-53
2022/06/01 10:38:31;;;;;;;3.70;1.50;;;15.80;93.90;;;;;;5016106;28;20042;-55
2022/06/01 10:40:58;;;;;;;3.50;1.27;;;15.70;94.40;;;;;;5016187;28;20046;-53
2022/06/01 10:43:24;;;;;;;5.32;1.27;;;15.70;94.70;;;;;;5029977;28;20049;-55
2022/06/01 10:45:52;;;;;;;5.07;1.40;;;15.70;93.80;;;;;;5034795;28;20049;-57
2022/06/01 10:48:23;;;;;;;4.65;1.15;;;15.60;94.20;;;;;;5034812;28;20111;-57
2022/06/01 10:50:49;;;;;;;2.60;1.20;;;15.50;94.10;;;;;;5034797;28;20469;-52
2022/06/01 10:53:16;;;;;;;4.38;1.20;;;15.40;94.40;;;;;;5034710;28;20481;-59
2022/06/01 10:55:43;;;;;;;4.03;1.40;;;15.30;94.60;;;;;;5034836;28;20040;-51
2022/06/01 10:58:10;;;;;;;3.45;1.40;;;15.10;94.60;;;;;;5026335;28;20438;-58
2022/06/01 11:00:36;;;;;;;1.90;1.13;;;15.20;94.60;;;;;;5015802;28;20493;-53
2022/06/01 11:03:03;;;;;;;3.75;1.33;;;15.10;93.20;;;;;;5015831;28;20386;-54
2022/06/01 11:05:31;;;;;;;3.45;1.02;;;15.00;93.40;;;;;;5015805;28;20149;-51
2022/06/01 11:07:58;;;;;;;2.03;0.93;;;14.90;94.40;;;;;;5016200;28;20097;-54
2022/06/01 11:10:25;;;;;;;2.40;1.02;;;14.90;93.20;;;;;;5015622;28;20053;-55
2022/06/01 11:12:53;;;;;;;3.92;1.30;;;14.80;93.30;;;;;;5030448;28;20046;-51
2022/06/01 11:15:20;;;;;;;1.88;1.00;;;14.70;93.50;;;;;;5034742;28;20149;-53
2022/06/01 11:17:47;;;;;;;2.88;1.20;;;14.70;93.60;;;;;;5033669;28;20037;-52
2022/06/01 11:20:14;;;;;;;2.35;1.13;;;14.60;93.60;;;;;;5034746;28;20550;-57
2022/06/01 11:22:40;;;;;;;5.25;1.27;;;14.60;94.10;;;;;;5030721;28;20484;-54
2022/06/01 11:25:08;;;;;;;5.45;2.05;;;14.60;93.50;;;;;;5034894;28;20451;-54
2022/06/01 11:27:34;;;;;;;4.85;1.90;;;14.50;95.20;;;;;;5034650;28;20120;-51
2022/06/01 11:30:01;;;;;;;4.45;1.77;;;14.40;96.00;;;;;;5034798;28;20100;-56
2022/06/01 11:32:28;;;;;;;3.53;1.90;;;14.40;96.00;;;;;;5034399;28;20049;-51
2022/06/01 11:34:55;;;;;;;5.47;2.22;;;14.40;97.20;;;;;;5034190;28;20041;-52
2022/06/01 11:37:26;;;;;;;5.28;2.22;;;14.30;97.80;;;;;;5033959;28;20453;-55
2022/06/01 11:39:53;;;;;;;5.35;2.13;;;14.40;98.80;;;;;;5034286;28;20060;-53
2022/06/01 11:42:20;;;;;;;4.70;2.00;;;14.30;98.20;;;;;;5019541;28;20046;-59
2022/06/01 11:44:46;;;;;;;3.50;1.92;;;14.30;99.50;;;;;;5015119;28;20481;-54
2022/06/01 11:47:13;;;;;;;3.83;2.20;;;14.30;99.20;;;;;;5014196;28;20056;-56
2022/06/01 11:49:40;;;;;;;3.70;1.88;;;14.50;99.00;;;;;;5015129;28;20362;-59
2022/06/01 11:52:07;;;;;;;4.30;2.47;;;14.60;98.60;;;;;;5015260;28;20042;-50
2022/06/01 11:54:33;;;;;;;6.88;1.80;;;14.70;98.20;;;;;;5033409;28;20042;-51
2022/06/01 11:57:00;;;;;;;4.53;2.08;;;14.90;97.90;;;;;;5026662;28;20461;-57
2022/06/01 11:59:27;;;;;;;3.97;2.20;;;15.00;97.40;;;;;;5015152;28;20038;-55
2022/06/01 12:01:54;;;;;;;3.13;2.10;;;15.00;97.60;;;;;;5018787;28;20461;-59
2022/06/01 12:04:20;;;;;;;4.60;1.98;;;15.10;97.40;;;;;;5014558;28;20069;-55
2022/06/01 12:06:47;;;;;;;5.25;2.00;;;15.20;96.50;;;;;;5025442;28;20045;-55
2022/06/01 12:09:14;;;;;;;3.72;1.50;;;15.30;95.70;;;;;;5033885;28;20041;-53
2022/06/01 12:11:42;;;;;;;3.25;1.50;;;15.40;95.80;;;;;;5020607;28;20049;-51
2022/06/01 12:14:08;;;;;;;4.47;1.48;;;15.40;94.70;;;;;;5014621;28;20058;-59
2022/06/01 12:16:35;;;;;;;3.03;1.85;;;15.50;94.30;;;;;;5014803;28;20489;-53
2022/06/01 12:19:02;;;;;;;5.03;2.03;;;15.50;93.90;;;;;;5014423;28;20477;-55
2022/06/01 12:21:29;;;;;;;3.05;1.50;;;15.50;93.80;;;;;;5012210;28;20061;-54
2022/06/01 12:29:27;;;;;;;3.28;1.90;;;15.70;93.90;;;;;;5012374;28;20465;-54
2022/06/01 12:31:54;;;;;;;4.63;1.77;;;15.80;95.10;;;;;;5012237;28;20100;-53
2022/06/01 12:34:20;;;;;;;5.25;1.80;;;15.80;95.30;;;;;;5027756;28;20124;-52
2022/06/01 12:36:47;;;;;;;7.30;1.58;;;15.90;95.50;;;;;;5030860;28;20042;-52
2022/06/01 12:39:14;;;;;;;3.38;1.70;;;16.00;96.00;;;;;;5033150;28;20120;-52
2022/06/01 12:41:41;;;;;;;4.75;1.70;;;16.00;96.00;;;;;;5031978;28;20053;-54
2022/06/01 12:44:07;;;;;;;3.70;1.80;;;16.00;96.40;;;;;;5033001;28;20038;-54
2022/06/01 12:46:34;;;;;;;3.30;1.75;;;16.20;96.50;;;;;;5032984;28;20046;-55
2022/06/01 12:49:01;;;;;;;4.10;1.80;;;16.10;95.40;;;;;;5032946;28;20042;-53
2022/06/01 12:51:28;;;;;;;3.03;1.75;;;16.20;94.90;;;;;;5032998;28;20038;-54
2022/06/01 12:53:56;;;;;;;2.85;1.45;;;16.20;94.80;;;;;;5032739;28;20451;-54
2022/06/01 12:56:24;;;;;;;2.55;1.27;;;16.20;94.20;;;;;;5032647;28;20091;-53
2022/06/01 12:58:52;;;;;;;2.35;1.40;;;16.20;94.50;;;;;;5032998;28;20041;-54
2022/06/01 13:01:27;;;;;;;1.65;1.15;;;16.30;94.60;;;;;;5032959;28;20091;-52
2022/06/01 13:03:54;;;;;;;1.63;0.77;;;16.50;93.70;;;;;;5032928;28;20123;-53
2022/06/01 13:06:21;;;;;;;2.65;0.63;;;16.50;92.60;;;;;;5032706;28;20107;-53
2022/06/01 13:08:48;;;;;;;2.08;0.80;;;16.60;91.90;;;;;;5032830;28;20488;-52
2022/06/01 13:11:14;;;;;;;2.15;0.82;;;16.70;92.70;;;;;;5032692;28;20099;-56
2022/06/01 13:13:41;;;;;;;1.98;0.80;;;16.80;91.10;;;;;;5032636;28;20044;-50
2022/06/01 13:16:08;;;;;;;1.75;0.60;;;17.00;91.60;;;;;;5032563;28;20440;-51
2022/06/01 13:18:35;;;;;;;1.30;0.70;;;17.10;90.40;;;;;;5032654;28;20069;-55
2022/06/01 13:21:02;;;;;;;1.60;0.80;;;17.10;90.40;;;;;;5032629;28;20046;-56
2022/06/01 13:23:29;;;;;;;2.03;0.80;;;17.30;90.70;;;;;;5032342;28;20063;-54
2022/06/01 13:25:56;;;;;;;1.80;0.70;;;17.30;86.80;;;;;;5032446;28;20497;-53
2022/06/01 13:28:22;;;;;;;3.25;1.60;;;17.40;88.70;;;;;;5064532;28;20045;-48
2022/06/01 13:30:49;;;;;;;4.55;2.17;;;17.50;90.00;;;;;;5032522;28;20045;-57
2022/06/01 13:33:16;;;;;;;3.67;1.80;;;17.30;89.50;;;;;;5032352;28;20400;-53
2022/06/01 13:35:43;;;;;;;3.20;1.42;;;17.10;89.90;;;;;;5032412;28;20045;-55
2022/06/01 13:38:09;;;;;;;3.78;1.73;;;17.00;89.40;;;;;;5031145;28;20050;-56
2022/06/01 13:40:36;;;;;;;3.08;1.40;;;16.70;90.00;;;;;;5031050;28;20095;-53
2022/06/01 13:43:03;;;;;;;4.22;1.50;;;16.60;90.70;;;;;;5032198;28;20041;-54
2022/06/01 13:45:30;;;;;;;3.65;1.50;;;16.50;90.30;;;;;;5031806;28;20539;-54
2022/06/01 13:47:57;;;;;;;2.30;1.40;;;16.50;90.40;;;;;;5032441;28;20049;-53
2022/06/01 13:50:23;;;;;;;2.33;1.40;;;16.40;90.50;;;;;;5032254;28;20042;-51
2022/06/01 13:52:50;;;;;;;3.25;1.60;;;16.40;89.90;;;;;;5021995;28;20147;-54
2022/06/01 13:55:17;;;;;;;4.07;1.30;;;16.30;90.00;;;;;;5013326;28;20038;-54
2022/06/01 13:57:44;;;;;;;4.80;1.63;;;16.20;90.10;;;;;;5013286;28;20042;-53
2022/06/01 14:00:10;;;;;;;3.25;1.60;;;16.30;90.20;;;;;;5012015;28;20038;-55
2022/06/01 14:02:37;;;;;;;3.63;1.60;;;16.30;89.20;;;;;;5013346;28;20034;-54
2022/06/01 14:05:04;;;;;;;2.85;1.60;;;16.40;90.40;;;;;;5013133;28;20050;-54
2022/06/01 14:07:30;;;;;;;2.13;1.40;;;16.60;90.20;;;;;;5013288;28;20413;-55
2022/06/01 14:09:57;;;;;;;3.42;1.63;;;16.70;88.90;;;;;;5015267;28;20068;-50
2022/06/01 14:12:24;;;;;;;2.13;1.33;;;16.90;87.30;;;;;;5016875;28;20046;-53
2022/06/01 14:14:51;;;;;;;2.22;1.30;;;17.10;87.80;;;;;;5021377;28;20472;-56
2022/06/01 14:17:18;;;;;;;3.08;1.40;;;17.40;90.00;;;;;;5035869;28;20065;-54
2022/06/01 14:19:44;;;;;;;7.32;1.40;;;17.80;88.40;;;;;;5035796;28;20033;-55
2022/06/01 14:22:11;;;;;;;2.80;1.33;;;17.70;84.50;;;;;;5035409;28;20053;-53
2022/06/01 14:30:09;;;;;;;2.88;1.50;;;17.40;85.70;;;;;;5035578;28;20527;-52
2022/06/01 14:32:38;;;;;;;2.13;1.23;;;17.40;85.00;;;;;;5035473;28;20072;-52
2022/06/01 14:35:05;;;;;;;4.90;1.98;;;17.30;84.40;;;;;;5035332;28;20066;-53
2022/06/01 14:37:32;;;;;;;4.28;1.50;;;17.10;84.40;;;;;;5035571;28;20108;-54
2022/06/01 14:39:59;;;;;;;3.83;1.35;;;17.00;85.50;;;;;;5035464;28;20047;-55
2022/06/01 14:42:25;;;;;;;3.38;1.60;;;17.00;85.70;;;;;;5035639;28;20481;-53
2022/06/01 14:44:52;;;;;;;3.25;1.48;;;17.00;86.40;;;;;;5035768;28;20046;-55
2022/06/01 14:47:19;;;;;;;12.32;2.33;;;17.00;87.40;;;;;;5035362;28;20045;-53
2022/06/01 14:49:45;;;;;;;5.68;1.92;;;17.00;85.70;;;;;;5035597;28;20067;-57
2022/06/01 14:52:12;;;;;;;5.22;1.88;;;16.90;86.40;;;;;;5035905;28;20045;-50
2022/06/01 14:54:39;;;;;;;3.55;1.60;;;17.00;87.70;;;;;;5034982;28;20044;-53
2022/06/01 14:57:06;;;;;;;3.33;1.70;;;17.00;87.30;;;;;;5028385;28;20042;-54
2022/06/01 14:59:32;;;;;;;4.53;1.85;;;17.00;86.90;;;;;;5016017;28;20052;-54
2022/06/01 15:01:59;;;;;;;4.38;1.70;;;17.00;86.00;;;;;;5015861;28;20041;-52
2022/06/01 15:04:28;;;;;;;3.97;1.58;;;17.10;86.40;;;;;;5015888;28;20044;-52
2022/06/01 15:06:55;;;;;;;2.88;1.70;;;17.20;87.30;;;;;;5015846;28;20497;-48
2022/06/01 15:09:22;;;;;;;2.97;1.67;;;17.40;86.10;;;;;;5015826;28;20041;-47
2022/06/01 15:11:51;;;;;;;2.53;1.25;;;17.70;86.30;;;;;;5015823;28;20466;-50
2022/06/01 15:14:17;;;;;;;5.30;1.60;;;17.80;83.30;;;;;;5016077;28;20045;-53
2022/06/01 15:16:44;;;;;;;3.53;1.45;;;17.70;81.90;;;;;;5034724;28;20087;-50
2022/06/01 15:19:11;;;;;;;3.70;1.42;;;17.70;85.40;;;;;;5034610;28;20091;-54
2022/06/01 15:21:38;;;;;;;3.63;1.48;;;17.80;83.10;;;;;;5034734;28;20045;-55
2022/06/01 15:24:05;;;;;;;2.15;1.27;;;17.90;81.10;;;;;;5034483;28;20057;-53
2022/06/01 15:26:31;;;;;;;3.15;1.52;;;18.10;81.90;;;;;;5034664;28;20099;-52
2022/06/01 15:28:58;;;;;;;3.50;1.92;;;18.10;81.00;;;;;;5034510;28;20132;-52
2022/06/01 15:39:41;;;;;;;4.40;1.40;;;18.50;79.50;;;;;;5028562;28;19921;-56
2022/06/01 15:42:08;;;;;;;2.75;1.20;;;18.40;79.50;;;;;;5034303;28;20041;-52
2022/06/01 15:44:35;;;;;;;3.42;1.33;;;18.40;78.70;;;;;;5033983;28;20049;-54
2022/06/01 15:47:01;;;;;;;4.50;1.42;;;18.40;78.30;;;;;;5034134;28;20099;-52
2022/06/01 15:49:28;;;;;;;2.05;1.10;;;18.40;79.10;;;;;;5034191;28;20037;-57
2022/06/01 15:52:01;;;;;;;2.85;1.10;;;18.50;78.10;;;;;;5034029;28;20404;-54
2022/06/01 15:54:28;;;;;;;2.90;1.10;;;18.70;77.20;;;;;;5034082;28;20447;-52
2022/06/01 15:56:56;;;;;;;2.80;1.00;;;18.90;75.60;;;;;;5034007;28;20044;-54
2022/06/01 15:59:23;;;;;;;2.75;1.13;;;19.20;78.10;;;;;;5033816;28;20037;-53
2022/06/01 16:01:49;;;;;;;3.97;1.08;;;19.60;76.50;;;;;;5033726;28;20034;-56
2022/06/01 16:04:16;;;;;;;3.85;0.80;;;19.80;75.50;;;;;;5033641;28;20511;-53
2022/06/01 16:06:57;;;;;;;3.58;0.90;;;20.00;75.90;;;;;;5033845;28;20053;-54
2022/06/01 16:09:24;;;;;;;2.15;1.00;;;20.30;73.70;;;;;;5033720;28;20049;-51
2022/06/01 16:11:51;;;;;;;1.38;0.70;;;20.60;71.40;;;;;;5033648;28;20580;-54
2022/06/01 16:14:18;;;;;;;1.73;0.98;;;20.80;69.80;;;;;;5033338;28;20073;-52
2022/06/01 16:16:44;;;;;;;1.90;0.75;;;20.80;70.50;;;;;;5033546;28;20038;-56
2022/06/01 16:19:11;;;;;;;1.58;0.80;;;21.20;69.10;;;;;;5033406;28;20072;-50
2022/06/01 16:21:38;;;;;;;1.83;0.80;;;21.40;66.80;;;;;;5033407;28;20044;-54
2022/06/01 16:24:05;;;;;;;2.63;0.80;;;21.20;66.00;;;;;;5033036;28;20079;-53
2022/06/01 16:26:31;;;;;;;1.85;0.70;;;21.30;65.00;;;;;;5033216;28;20048;-53
2022/06/01 16:28:58;;;;;;;2.13;0.80;;;21.50;66.00;;;;;;5033197;28;20088;-51
2022/06/01 16:31:25;;;;;;;4.00;0.88;;;21.80;68.00;;;;;;5032744;28;20049;-51
2022/06/01 16:33:52;;;;;;;1.85;1.00;;;22.30;65.00;;;;;;5033114;28;20128;-54
2022/06/01 16:36:31;;;;;;;2.05;1.08;;;22.20;63.10;;;;;;5033077;28;20042;-55
2022/06/01 16:38:58;;;;;;;2.35;0.80;;;22.00;63.80;;;;;;5033097;28;20038;-53
2022/06/01 16:41:25;;;;;;;1.50;0.80;;;22.10;63.70;;;;;;5033067;28;20452;-51
2022/06/01 16:43:52;;;;;;;2.72;0.63;;;22.30;63.70;;;;;;5032782;28;20086;-54
2022/06/01 16:46:19;;;;;;;3.88;0.90;;;22.50;63.10;;;;;;5031650;28;20128;-53
2022/06/01 16:48:46;;;;;;;2.53;1.10;;;22.70;62.10;;;;;;5032967;28;20044;-57
2022/06/01 16:51:12;;;;;;;2.60;1.02;;;23.00;62.60;;;;;;5032933;28;20427;-54
2022/06/01 16:53:39;;;;;;;1.65;0.80;;;22.90;60.40;;;;;;5032866;28;20370;-52
2022/06/01 16:56:06;;;;;;;1.60;0.80;;;22.90;62.80;;;;;;5031520;28;20405;-55
2022/06/01 16:58:33;;;;;;;1.75;0.80;;;23.30;62.20;;;;;;5032757;28;20038;-52
2022/06/01 17:01:00;;;;;;;1.70;0.80;;;23.70;61.20;;;;;;5032829;28;20483;-54
2022/06/01 17:03:26;;;;;;;1.77;0.82;;;24.00;59.30;;;;;;5032801;28;20056;-56
2022/06/01 17:05:53;;;;;;;3.25;0.70;;;24.20;59.10;;;;;;5032792;28;20050;-54
2022/06/01 17:08:20;;;;;;;2.35;0.85;;;24.20;58.30;;;;;;5032793;28;20053;-53
2022/06/01 17:10:47;;;;;;;1.88;0.88;;;24.10;56.30;;;;;;5032974;28;20107;-54
2022/06/01 17:13:13;;;;;;;2.92;0.98;;;23.70;57.90;;;;;;5032991;28;20042;-54
2022/06/01 17:15:40;;;;;;;2.17;0.80;;;23.30;60.10;;;;;;5032633;28;20465;-57
2022/06/01 17:18:07;;;;;;;4.18;1.00;;;22.50;60.80;;;;;;5032706;28;20428;-56
2022/06/01 17:20:34;;;;;;;2.10;1.00;;;22.20;62.00;;;;;;5032903;28;20056;-51
2022/06/01 17:23:01;;;;;;;2.28;0.90;;;21.70;62.60;;;;;;5032317;28;20053;-53
2022/06/01 17:25:27;;;;;;;1.80;0.65;;;21.30;62.50;;;;;;5031899;28;20037;-54
2022/06/01 17:27:54;;;;;;;3.63;0.80;;;21.00;65.20;;;;;;5064540;28;20049;-54
2022/06/01 17:30:21;;;;;;;2.42;1.00;;;20.70;65.30;;;;;;5032547;28;20069;-52
2022/06/01 17:32:48;;;;;;;1.60;0.90;;;20.20;66.60;;;;;;5032428;28;20120;-53
2022/06/01 17:35:15;;;;;;;3.60;1.10;;;19.70;66.20;;;;;;5032440;28;20065;-57
2022/06/01 17:37:41;;;;;;;3.55;1.10;;;19.50;67.70;;;;;;5032474;28;20511;-55
2022/06/01 17:40:15;;;;;;;1.88;0.90;;;19.40;67.80;;;;;;5032349;28;20041;-53
2022/06/01 17:42:41;;;;;;;1.83;0.93;;;19.20;68.60;;;;;;5032245;28;20092;-56
2022/06/01 17:45:08;;;;;;;4.75;0.90;;;19.10;68.70;;;;;;5034978;28;20045;-55
2022/06/01 17:47:35;;;;;;;2.70;1.50;;;19.00;68.60;;;;;;5035693;28;20052;-57
2022/06/01 17:50:02;;;;;;;3.40;1.10;;;18.90;69.60;;;;;;5035000;28;20444;-56
2022/06/01 17:52:28;;;;;;;2.38;1.10;;;18.90;68.90;;;;;;5036205;28;20092;-58
2022/06/01 17:54:55;;;;;;;1.65;1.00;;;18.80;68.80;;;;;;5035938;28;20049;-52
2022/06/01 17:57:22;;;;;;;3.05;1.20;;;18.80;70.00;;;;;;5036287;28;20040;-55
2022/06/01 17:59:49;;;;;;;4.03;1.10;;;18.70;70.00;;;;;;5021446;28;20049;-51
2022/06/01 18:02:16;;;;;;;1.98;1.10;;;18.40;68.90;;;;;;5015792;28;20429;-54
2022/06/01 18:04:45;;;;;;;2.38;1.20;;;18.40;68.70;;;;;;5016936;28;20075;-55
2022/06/01 18:07:11;;;;;;;2.70;1.10;;;18.30;70.50;;;;;;5017004;28;20049;-54
2022/06/01 18:09:40;;;;;;;2.40;1.10;;;18.30;70.40;;;;;;5016925;28;20452;-56
2022/06/01 18:12:06;;;;;;;1.77;0.85;;;18.60;69.70;;;;;;5016930;28;20045;-54
2022/06/01 18:14:33;;;;;;;4.20;1.33;;;19.30;69.80;;;;;;5016776;28;20116;-57
2022/06/01 18:17:00;;;;;;;4.32;1.05;;;19.80;68.80;;;;;;5024945;28;20033;-57
2022/06/01 18:19:27;;;;;;;4.20;1.30;;;20.20;68.80;;;;;;5035949;28;20042;-55
2022/06/01 18:21:55;;;;;;;1.80;1.15;;;20.20;66.20;;;;;;5035611;28;20514;-55
2022/06/01 18:24:22;;;;;;;2.17;1.05;;;20.20;64.30;;;;;;5035471;28;20056;-56
2022/06/01 18:26:49;;;;;;;4.45;1.17;;;20.00;66.40;;;;;;5035598;28;20041;-55
2022/06/01 18:29:16;;;;;;;2.17;1.00;;;20.00;66.10;;;;;;5035700;28;20060;-55
2022/06/01 18:31:42;;;;;;;2.00;1.00;;;20.10;67.50;;;;;;5027576;28;20103;-52
2022/06/01 18:34:29;;;;;;;1.67;0.98;;;20.40;66.50;;;;;;5016387;28;20065;-54
2022/06/01 18:36:56;;;;;;;2.55;1.20;;;20.30;65.20;;;;;;5016717;28;20060;-52
2022/06/01 18:39:23;;;;;;;2.95;1.20;;;20.10;65.50;;;;;;5016602;28;20453;-54
2022/06/01 18:41:55;;;;;;;2.20;1.00;;;19.90;65.60;;;;;;5016517;28;20085;-55
2022/06/01 18:44:21;;;;;;;3.53;1.02;;;19.60;66.20;;;;;;5016217;28;20069;-51
2022/06/01 18:46:48;;;;;;;1.70;0.95;;;19.50;66.00;;;;;;5022950;28;20041;-52
2022/06/01 18:49:15;;;;;;;1.70;0.90;;;19.30;66.30;;;;;;5035073;28;20059;-54
2022/06/01 18:51:42;;;;;;;4.15;1.50;;;19.10;67.90;;;;;;5035211;28;20037;-54
2022/06/01 18:54:12;;;;;;;4.05;1.33;;;19.00;67.50;;;;;;5035001;28;20064;-52
2022/06/01 18:56:39;;;;;;;2.60;1.05;;;18.80;68.20;;;;;;5034697;28;20045;-52
2022/06/01 18:59:05;;;;;;;3.20;1.45;;;18.70;69.80;;;;;;5035138;28;20136;-52
2022/06/01 19:01:32;;;;;;;2.35;1.30;;;18.70;69.00;;;;;;5034962;28;20037;-52
2022/06/01 19:04:00;;;;;;;1.83;1.17;;;18.70;68.70;;;;;;5034889;28;20124;-55
2022/06/01 19:06:27;;;;;;;3.88;1.17;;;18.70;68.80;;;;;;5034938;28;20045;-54
2022/06/01 19:08:54;;;;;;;3.42;1.40;;;18.50;67.60;;;;;;5034975;28;20041;-57
2022/06/01 19:11:20;;;;;;;3.63;1.50;;;18.50;69.10;;;;;;5034869;28;20484;-54
2022/06/01 19:13:47;;;;;;;1.77;1.13;;;18.50;69.20;;;;;;5034776;28;20052;-53
2022/06/01 19:16:14;;;;;;;3.22;1.48;;;18.30;68.30;;;;;;5034482;28;20112;-55
2022/06/01 19:18:41;;;;;;;2.65;1.30;;;18.20;68.40;;;;;;5034692;28;20039;-54
2022/06/01 19:21:08;;;;;;;5.38;1.50;;;18.10;67.30;;;;;;5034647;28;20542;-55
2022/06/01 19:23:35;;;;;;;2.50;1.27;;;18.00;68.30;;;;;;5034405;28;20435;-55
2022/06/01 19:26:02;;;;;;;2.55;1.40;;;18.10;69.40;;;;;;5034524;28;20045;-52
2022/06/01 19:28:28;;;;;;;2.97;1.45;;;18.10;69.90;;;;;;5034318;28;20373;-53
2022/06/01 19:30:55;;;;;;;2.50;1.40;;;18.10;69.30;;;;;;5034092;28;20049;-51
2022/06/01 19:33:22;;;;;;;2.60;1.20;;;18.10;69.40;;;;;;5033968;28;20053;-54
2022/06/01 19:44:14;;;;;;;;;;;18.00;70.60;;;;;;5034589;28;20054;-53
2022/06/01 19:46:47;;;;;;;3.25;1.60;;;18.00;71.20;;;;;;5033646;28;19921;-54
2022/06/01 19:49:14;;;;;;;4.80;1.58;;;18.00;71.40;;;;;;5014267;28;20061;-53
2022/06/01 19:51:41;;;;;;;2.63;1.58;;;17.90;72.70;;;;;;5014371;28;20042;-55
2022/06/01 19:54:08;;;;;;;4.35;1.40;;;17.80;72.60;;;;;;5014568;28;20481;-57
2022/06/01 19:56:35;;;;;;;2.97;1.65;;;17.70;74.10;;;;;;5014518;28;20049;-54
2022/06/01 19:59:01;;;;;;;2.88;1.63;;;17.60;74.70;;;;;;5014624;28;20500;-53
2022/06/01 20:01:28;;;;;;;3.75;1.80;;;17.50;74.50;;;;;;5014542;28;20042;-54
2022/06/01 20:03:55;;;;;;;2.55;1.70;;;17.40;75.30;;;;;;5014460;28;20073;-51
2022/06/01 20:06:22;;;;;;;3.65;2.25;;;17.30;75.20;;;;;;5013732;28;20100;-54
2022/06/01 20:08:51;;;;;;;7.82;1.90;;;17.20;76.20;;;;;;5014253;28;20052;-56
2022/06/01 20:14:03;;;;;;;;;;;17.10;77.40;;;;;;5015226;28;20382;-55
2022/06/01 20:16:30;;;;;;;4.15;2.88;;;17.00;78.40;;;;;;5018748;28;19967;-52
2022/06/01 20:18:57;;;;;;;4.82;3.08;;;16.90;78.40;;;;;;5033514;28;20100;-51
2022/06/01 20:21:24;;;;;;;6.30;2.92;;;16.80;79.50;;;;;;5033497;28;20033;-55
2022/06/01 20:23:51;;;;;;;3.60;2.75;;;16.70;79.90;;;;;;5033255;28;20046;-55
2022/06/01 20:26:18;;;;;;;4.57;3.00;;;16.50;80.10;;;;;;5033461;28;20042;-56
2022/06/01 20:28:48;;;;;;;5.03;3.13;;;16.50;80.70;;;;;;5033370;28;20408;-52
2022/06/01 20:31:15;;;;;;;5.78;3.13;;;16.40;81.60;;;;;;5033189;28;20041;-54
2022/06/01 20:33:42;;;;;;;7.20;3.28;;;16.30;81.00;;;;;;5033202;28;20042;-52
2022/06/01 20:36:09;;;;;;;9.63;3.95;;;16.30;82.30;;;;;;5033389;28;20049;-54
2022/06/01 20:38:36;;;;;;;7.90;3.28;;;16.20;81.90;;;;;;5033182;28;20099;-56
2022/06/01 20:41:02;;;;;;;8.35;3.58;;;16.10;82.80;;;;;;5033296;28;20042;-56
2022/06/01 20:43:29;;;;;;;6.88;3.28;;;16.00;83.70;;;;;;5032196;28;20048;-55
2022/06/01 20:45:58;;;;;;;4.05;2.97;;;16.00;83.90;;;;;;5032944;28;20128;-52
2022/06/01 20:48:25;;;;;;;4.55;2.60;;;15.90;83.50;;;;;;5033004;28;20045;-51
2022/06/01 20:50:52;;;;;;;5.00;3.10;;;15.80;83.70;;;;;;5032900;28;20038;-51
2022/06/01 20:53:19;;;;;;;7.00;3.15;;;15.80;83.60;;;;;;5032805;28;20160;-51
2022/06/01 20:55:45;;;;;;;6.50;2.88;;;15.70;84.60;;;;;;5032813;28;20044;-54
2022/06/01 20:58:12;;;;;;;5.15;2.60;;;15.60;85.10;;;;;;5032868;28;20488;-54
2022/06/01 21:00:41;;;;;;;4.03;2.42;;;15.50;85.70;;;;;;5031610;28;20045;-51
2022/06/01 21:03:12;;;;;;;5.65;2.60;;;15.50;86.40;;;;;;5032967;28;20045;-51
2022/06/01 21:05:39;;;;;;;6.72;3.80;;;15.40;86.40;;;;;;5032816;28;20041;-55
2022/06/01 21:08:05;;;;;;;3.97;2.72;;;15.30;86.90;;;;;;5032813;28;20409;-53
2022/06/01 21:10:35;;;;;;;5.85;2.70;;;15.20;87.10;;;;;;5032790;28;20046;-53
2022/06/01 21:13:02;;;;;;;6.70;2.97;;;15.20;88.40;;;;;;5019306;28;20077;-54
2022/06/01 21:15:29;;;;;;;4.50;2.63;;;15.10;88.20;;;;;;5020179;28;20042;-49
2022/06/01 21:17:57;;;;;;;5.28;2.95;;;15.00;88.90;;;;;;5016957;28;20037;-52
2022/06/01 21:20:23;;;;;;;7.22;3.13;;;15.00;89.50;;;;;;5026664;28;20045;-52
2022/06/01 21:22:50;;;;;;;6.10;2.70;;;14.90;90.10;;;;;;5013195;28;20050;-51
2022/06/01 21:25:17;;;;;;;6.88;2.92;;;14.90;89.70;;;;;;5020385;28;20050;-52
2022/06/01 21:27:44;;;;;;;4.57;2.88;;;14.80;90.30;;;;;;5013881;28;20057;-55
2022/06/01 21:30:11;;;;;;;7.95;3.03;;;14.80;90.60;;;;;;5015881;28;20045;-51
2022/06/01 21:32:38;;;;;;;4.70;3.08;;;14.70;90.60;;;;;;5017776;28;20042;-57
2022/06/01 21:35:05;;;;;;;5.20;2.80;;;14.60;90.80;;;;;;5020388;28;20412;-53
2022/06/01 21:37:33;;;;;;;4.70;2.92;;;14.60;90.90;;;;;;5031155;28;20040;-53
2022/06/01 21:39:59;;;;;;;4.28;3.30;;;14.50;91.00;;;;;;5031015;28;20088;-58
2022/06/01 21:42:30;;;;;;;6.85;3.30;;;14.40;91.50;;;;;;5031183;28;20392;-53
2022/06/01 21:45:02;;;;;;;7.35;3.78;;;14.40;91.80;;;;;;5032154;28;20033;-51
2022/06/01 21:47:29;;;;;;;7.13;4.10;;;14.30;92.00;;;;;;5031567;28;20042;-50
2022/06/01 21:49:55;;;;;;;10.57;4.72;;;14.20;92.60;;;;;;5032265;28;20052;-50
2022/06/01 21:52:22;;;;;;;6.28;4.50;;;14.20;92.60;;;;;;5032207;28;20041;-53
2022/06/01 21:54:49;;;;;;;8.35;4.82;;;14.10;93.40;;;;;;5031849;28;20034;-53
2022/06/01 21:57:16;;;;;;;8.40;4.50;;;14.00;93.10;;;;;;5032027;28;20042;-56
2022/06/01 21:59:42;;;;;;;5.70;4.38;;;14.00;93.50;;;;;;5032051;28;20041;-53
2022/06/01 22:02:09;;;;;;;7.80;4.30;;;14.00;93.60;;;;;;5031486;28;20045;-53
2022/06/01 22:04:36;;;;;;;6.57;3.97;;;13.90;93.70;;;;;;5017251;28;20038;-56
2022/06/01 22:07:03;;;;;;;5.45;4.05;;;13.90;94.10;;;;;;5014649;28;20389;-54
2022/06/01 22:09:29;;;;;;;5.45;4.15;;;13.80;93.80;;;;;;5026774;28;20111;-54
2022/06/01 22:12:20;;;;;;;5.38;4.25;;;13.80;94.30;;;;;;5024729;28;20053;-56
2022/06/01 22:14:47;;;;;;;6.32;4.57;;;13.80;94.70;;;;;;5023691;28;20501;-52
2022/06/01 22:17:14;;;;;;;9.85;5.13;;;13.70;94.50;;;;;;5029472;28;20232;-54
2022/06/01 22:19:41;;;;;;;8.32;5.15;;;13.70;94.50;;;;;;5023861;28;20385;-55
2022/06/01 22:22:07;;;;;;;11.65;5.07;;;13.50;94.90;;;;;;5021689;28;20038;-54
2022/06/01 22:24:34;;;;;;;7.35;5.07;;;13.50;95.00;;;;;;5015610;28;20074;-55
2022/06/01 22:27:01;;;;;;;8.60;5.78;;;13.40;95.10;;;;;;5015591;28;20092;-53
2022/06/01 22:29:28;;;;;;;12.25;6.75;;;13.40;95.50;;;;;;5012960;28;20045;-52
2022/06/01 22:31:55;;;;;;;10.02;6.65;;;13.30;95.80;;;;;;5016507;28;20046;-55
2022/06/01 22:34:21;;;;;;;10.65;6.18;;;13.30;96.10;;;;;;5018419;28;20058;-53
